createdAt,value
2018-11-12T00:00:31.866Z,14.52
2018-11-12T00:01:32.001Z,14.34
2018-11-12T00:02:32.136Z,14.44
2018-11-12T00:03:32.268Z,14.51
2018-11-12T00:04:32.401Z,14.48
2018-11-12T00:05:32.535Z,14.45
2018-11-12T00:06:32.668Z,14.30
2018-11-12T00:07:32.804Z,14.33
2018-11-12T00:08:32.938Z,14.40
2018-11-12T00:09:33.077Z,14.45
2018-11-12T00:10:33.208Z,14.36
2018-11-12T00:11:33.343Z,14.36
2018-11-12T00:12:33.484Z,14.23
2018-11-12T00:13:33.623Z,14.27
2018-11-12T00:14:33.753Z,14.33
2018-11-12T00:15:33.897Z,14.36
2018-11-12T00:16:34.049Z,14.37
2018-11-12T00:17:34.185Z,14.31
2018-11-12T00:18:34.339Z,14.38
2018-11-12T00:19:34.471Z,14.21
2018-11-12T00:20:34.608Z,14.19
2018-11-12T00:21:34.747Z,14.34
2018-11-12T00:22:34.885Z,14.34
2018-11-12T00:23:35.018Z,14.31
2018-11-12T00:24:35.158Z,14.36
2018-11-12T00:25:35.296Z,14.30
2018-11-12T00:26:35.441Z,14.22
2018-11-12T00:27:35.575Z,14.16
2018-11-12T00:28:35.707Z,14.28
2018-11-12T00:29:35.834Z,14.26
2018-11-12T00:30:35.969Z,14.28
2018-11-12T00:31:36.116Z,14.19
2018-11-12T00:32:36.250Z,14.23
2018-11-12T00:33:36.384Z,14.28
2018-11-12T00:34:36.520Z,14.22
2018-11-12T00:35:36.662Z,14.23
2018-11-12T00:36:36.798Z,14.28
2018-11-12T00:37:36.931Z,14.31
2018-11-12T00:38:37.065Z,14.26
2018-11-12T00:39:37.203Z,14.27
2018-11-12T00:40:37.332Z,14.26
2018-11-12T00:41:37.466Z,14.28
2018-11-12T00:42:37.604Z,14.26
2018-11-12T00:43:37.738Z,14.19
2018-11-12T00:44:37.905Z,14.22
2018-11-12T00:45:38.039Z,14.30
2018-11-12T00:46:38.173Z,14.19
2018-11-12T00:47:38.305Z,14.22
2018-11-12T00:48:38.439Z,14.27
2018-11-12T00:49:38.579Z,14.18
2018-11-12T00:50:38.708Z,14.12
2018-11-12T00:51:38.846Z,14.26
2018-11-12T00:52:38.983Z,14.19
2018-11-12T00:53:39.181Z,14.21
2018-11-12T00:54:39.190Z,14.11
2018-11-12T00:55:39.323Z,14.12
2018-11-12T00:56:39.452Z,14.09
2018-11-12T00:57:39.590Z,14.16
2018-11-12T00:58:39.728Z,14.19
2018-11-12T00:59:39.860Z,14.05
2018-11-12T01:00:39.993Z,14.22
2018-11-12T01:01:40.127Z,14.21
2018-11-12T01:02:40.263Z,14.05
2018-11-12T01:03:40.395Z,14.21
2018-11-12T01:04:40.526Z,14.21
2018-11-12T01:05:40.664Z,14.22
2018-11-12T01:06:40.794Z,14.18
2018-11-12T01:07:40.929Z,14.08
2018-11-12T01:08:41.071Z,14.13
2018-11-12T01:09:41.195Z,14.23
2018-11-12T01:10:41.395Z,14.05
2018-11-12T01:11:41.406Z,14.22
2018-11-12T01:12:41.543Z,14.27
2018-11-12T01:13:41.677Z,14.21
2018-11-12T01:14:41.819Z,14.26
2018-11-12T01:15:41.949Z,14.26
2018-11-12T01:16:42.087Z,14.15
2018-11-12T01:17:42.212Z,14.27
2018-11-12T01:18:42.348Z,14.27
2018-11-12T01:19:42.478Z,14.23
2018-11-12T01:20:42.618Z,14.27
2018-11-12T01:21:42.754Z,14.15
2018-11-12T01:22:42.890Z,14.18
2018-11-12T01:23:43.018Z,14.22
2018-11-12T01:24:43.158Z,14.22
2018-11-12T01:25:43.768Z,14.22
2018-11-12T01:26:43.419Z,14.22
2018-11-12T01:27:43.673Z,14.26
2018-11-12T01:28:43.677Z,14.36
2018-11-12T01:29:43.815Z,14.21
2018-11-12T01:30:43.968Z,14.27
2018-11-12T01:31:44.110Z,14.33
2018-11-12T01:32:44.757Z,14.19
2018-11-12T01:35:16.503Z,14.16
2018-11-12T01:36:16.629Z,14.19
2018-11-12T01:37:16.762Z,14.23
2018-11-12T01:38:16.945Z,14.23
2018-11-12T01:39:17.054Z,14.15
2018-11-12T01:40:17.191Z,14.09
2018-11-12T01:41:17.324Z,14.11
2018-11-12T01:42:17.518Z,14.13
2018-11-12T01:43:17.627Z,13.97
2018-11-12T01:44:17.762Z,13.96
2018-11-12T01:45:17.966Z,14.12
2018-11-12T01:46:17.991Z,14.08
2018-11-12T01:47:18.123Z,14.03
2018-11-12T01:48:18.267Z,14.15
2018-11-12T01:49:18.397Z,14.03
2018-11-12T01:50:18.571Z,14.03
2018-11-12T01:51:18.698Z,14.15
2018-11-12T01:52:18.837Z,14.11
2018-11-12T01:53:18.970Z,14.05
2018-11-12T01:54:19.109Z,14.15
2018-11-12T01:55:19.234Z,14.11
2018-11-12T01:56:19.374Z,14.01
2018-11-12T01:57:19.506Z,14.12
2018-11-12T01:58:19.675Z,14.19
2018-11-12T01:59:19.802Z,14.08
2018-11-12T02:00:19.940Z,14.26
2018-11-12T02:01:20.070Z,14.15
2018-11-12T02:02:20.217Z,14.15
2018-11-12T02:03:20.345Z,14.15
2018-11-12T02:04:20.517Z,14.15
2018-11-12T02:05:20.650Z,14.04
2018-11-12T02:06:20.881Z,14.09
2018-11-12T02:07:20.946Z,14.08
2018-11-12T02:08:21.080Z,14.15
2018-11-12T02:09:21.243Z,14.13
2018-11-12T02:10:21.351Z,14.00
2018-11-12T02:11:21.488Z,14.05
2018-11-12T02:12:21.624Z,14.00
2018-11-12T02:13:21.780Z,14.04
2018-11-12T02:14:21.971Z,14.03
2018-11-12T02:15:22.045Z,14.08
2018-11-12T02:16:22.219Z,14.01
2018-11-12T02:17:22.352Z,14.04
2018-11-12T02:18:22.483Z,14.00
2018-11-12T02:19:22.617Z,14.09
2018-11-12T02:20:22.769Z,14.08
2018-11-12T02:21:22.905Z,13.94
2018-11-12T02:22:23.089Z,14.01
2018-11-12T02:23:23.181Z,14.08
2018-11-12T02:24:23.315Z,14.12
2018-11-12T02:25:23.454Z,14.09
2018-11-12T02:26:23.696Z,14.08
2018-11-12T02:27:23.701Z,14.05
2018-11-12T02:28:23.836Z,14.04
2018-11-12T02:29:23.966Z,14.01
2018-11-12T02:30:24.152Z,13.98
2018-11-12T02:31:24.330Z,13.98
2018-11-12T02:32:24.401Z,13.90
2018-11-12T02:33:24.666Z,14.08
2018-11-12T02:34:24.709Z,14.01
2018-11-12T02:35:24.841Z,13.94
2018-11-12T02:36:24.977Z,14.01
2018-11-12T02:37:25.107Z,13.98
2018-11-12T02:38:25.262Z,13.97
2018-11-12T02:39:25.392Z,13.96
2018-11-12T02:40:25.532Z,13.98
2018-11-12T02:41:25.668Z,13.98
2018-11-12T02:42:25.833Z,13.91
2018-11-12T02:43:25.958Z,14.01
2018-11-12T02:44:26.098Z,14.03
2018-11-12T02:45:26.232Z,14.03
2018-11-12T02:46:26.395Z,14.00
2018-11-12T02:47:26.521Z,13.97
2018-11-12T02:48:26.661Z,13.88
2018-11-12T02:49:26.794Z,13.96
2018-11-12T02:50:26.948Z,13.94
2018-11-12T02:51:27.082Z,13.98
2018-11-12T02:52:27.221Z,13.94
2018-11-12T02:53:27.379Z,13.94
2018-11-12T02:54:27.513Z,13.91
2018-11-12T02:55:27.647Z,13.98
2018-11-12T02:56:27.801Z,13.98
2018-11-12T02:57:28.002Z,14.03
2018-11-12T02:58:28.066Z,14.00
2018-11-12T02:59:28.202Z,13.91
2018-11-12T03:00:28.336Z,13.83
2018-11-12T03:01:28.466Z,13.86
2018-11-12T03:02:28.618Z,13.90
2018-11-12T03:03:28.750Z,13.78
2018-11-12T03:04:28.886Z,13.85
2018-11-12T03:05:29.042Z,13.86
2018-11-12T03:06:29.175Z,13.80
2018-11-12T03:07:30.010Z,13.78
2018-11-12T03:08:29.423Z,13.80
2018-11-12T03:09:29.552Z,13.80
2018-11-12T03:10:29.694Z,13.76
2018-11-12T03:11:29.825Z,13.85
2018-11-12T03:12:29.994Z,13.82
2018-11-12T03:13:30.117Z,13.86
2018-11-12T03:14:30.253Z,13.88
2018-11-12T03:15:30.387Z,13.88
2018-11-12T03:16:30.540Z,13.83
2018-11-12T03:17:30.674Z,13.88
2018-11-12T03:18:30.809Z,13.86
2018-11-12T03:19:30.936Z,13.91
2018-11-12T03:20:31.097Z,13.86
2018-11-12T03:21:31.229Z,13.86
2018-11-12T03:22:31.366Z,13.91
2018-11-12T03:23:31.509Z,13.94
2018-11-12T03:24:31.640Z,13.90
2018-11-12T03:25:31.768Z,13.85
2018-11-12T03:26:31.902Z,13.91
2018-11-12T03:27:32.112Z,13.94
2018-11-12T03:28:32.180Z,13.82
2018-11-12T03:29:32.320Z,13.86
2018-11-12T03:30:32.527Z,13.98
2018-11-12T03:31:32.597Z,13.86
2018-11-12T03:32:32.727Z,13.90
2018-11-12T03:33:32.873Z,13.83
2018-11-12T03:34:32.998Z,13.85
2018-11-12T03:35:33.135Z,13.88
2018-11-12T03:36:33.288Z,13.88
2018-11-12T03:37:33.420Z,13.94
2018-11-12T03:38:33.555Z,13.85
2018-11-12T03:39:33.752Z,13.93
2018-11-12T03:40:33.827Z,13.82
2018-11-12T03:41:33.969Z,13.82
2018-11-12T03:42:58.921Z,13.88
2018-11-12T03:43:59.055Z,13.83
2018-11-12T03:44:59.208Z,13.93
2018-11-12T03:45:59.343Z,13.94
2018-11-12T03:46:59.498Z,13.91
2018-11-12T03:47:59.631Z,13.86
2018-11-12T03:48:59.783Z,13.85
2018-11-12T03:49:59.908Z,13.82
2018-11-12T03:51:00.046Z,13.85
2018-11-12T03:52:00.235Z,13.85
2018-11-12T03:53:00.367Z,13.73
2018-11-12T03:54:00.500Z,13.75
2018-11-12T03:55:00.636Z,13.72
2018-11-12T03:56:00.778Z,13.80
2018-11-12T03:57:00.911Z,13.79
2018-11-12T03:58:01.045Z,13.83
2018-11-12T03:59:01.184Z,13.86
2018-11-12T04:00:01.356Z,13.91
2018-11-12T04:01:01.480Z,13.88
2018-11-12T04:02:02.101Z,13.85
2018-11-12T04:03:01.778Z,13.83
2018-11-12T04:04:01.912Z,13.86
2018-11-12T04:05:02.583Z,13.83
2018-11-12T04:06:02.272Z,13.86
2018-11-12T04:07:02.397Z,13.88
2018-11-12T04:08:02.534Z,13.78
2018-11-12T04:09:02.692Z,13.72
2018-11-12T04:10:02.819Z,13.75
2018-11-12T04:11:02.949Z,13.75
2018-11-12T04:12:03.087Z,13.83
2018-11-12T04:13:03.223Z,13.79
2018-11-12T04:14:03.356Z,13.83
2018-11-12T04:15:03.490Z,13.73
2018-11-12T04:16:03.621Z,13.79
2018-11-12T04:17:03.776Z,13.82
2018-11-12T04:18:03.910Z,13.79
2018-11-12T04:19:04.044Z,13.83
2018-11-12T04:20:04.201Z,13.82
2018-11-12T04:21:04.330Z,13.82
2018-11-12T04:22:04.467Z,13.80
2018-11-12T04:23:04.603Z,13.82
2018-11-12T04:24:04.751Z,13.80
2018-11-12T04:25:04.881Z,13.73
2018-11-12T04:26:05.016Z,13.82
2018-11-12T04:27:05.153Z,13.73
2018-11-12T04:28:05.290Z,13.79
2018-11-12T04:29:05.419Z,13.78
2018-11-12T04:30:05.547Z,13.67
2018-11-12T04:31:05.682Z,13.73
2018-11-12T04:32:05.855Z,13.75
2018-11-12T04:33:05.987Z,13.68
2018-11-12T04:34:06.119Z,13.55
2018-11-12T04:35:06.252Z,13.58
2018-11-12T04:36:06.399Z,13.65
2018-11-12T04:37:06.531Z,13.71
2018-11-12T04:38:06.667Z,13.71
2018-11-12T04:39:06.799Z,13.64
2018-11-12T04:40:06.959Z,13.45
2018-11-12T04:41:07.095Z,13.32
2018-11-12T04:42:07.228Z,13.53
2018-11-12T04:43:07.859Z,13.49
2018-11-12T04:44:07.525Z,13.53
2018-11-12T04:45:07.653Z,13.65
2018-11-12T04:46:08.354Z,13.68
2018-11-12T04:47:07.913Z,13.67
2018-11-12T04:48:08.045Z,13.61
2018-11-12T04:49:08.175Z,13.72
2018-11-12T04:50:08.338Z,13.63
2018-11-12T04:51:08.465Z,13.63
2018-11-12T04:52:08.600Z,13.64
2018-11-12T04:53:08.734Z,13.61
2018-11-12T04:54:08.906Z,13.65
2018-11-12T04:55:09.118Z,13.63
2018-11-12T04:56:09.152Z,13.63
2018-11-12T04:57:09.302Z,13.64
2018-11-12T04:58:09.433Z,13.65
2018-11-12T04:59:09.634Z,13.61
2018-11-12T05:00:09.720Z,13.65
2018-11-12T05:01:09.849Z,13.67
2018-11-12T05:02:10.061Z,13.67
2018-11-12T05:03:10.147Z,13.63
2018-11-12T05:04:10.374Z,13.63
2018-11-12T05:05:10.383Z,13.61
2018-11-12T05:06:10.522Z,13.65
2018-11-12T05:07:10.691Z,13.65
2018-11-12T05:08:10.821Z,13.63
2018-11-12T05:09:10.962Z,13.60
2018-11-12T05:10:11.095Z,13.57
2018-11-12T05:11:11.246Z,13.63
2018-11-12T05:12:11.378Z,13.64
2018-11-12T05:13:11.514Z,13.58
2018-11-12T05:14:11.650Z,13.54
2018-11-12T05:15:11.817Z,13.47
2018-11-12T05:16:11.948Z,13.53
2018-11-12T05:17:12.088Z,13.55
2018-11-12T05:18:12.271Z,13.54
2018-11-12T05:19:12.401Z,13.54
2018-11-12T05:20:12.552Z,13.54
2018-11-12T05:21:12.690Z,13.60
2018-11-12T05:22:12.822Z,13.60
2018-11-12T05:23:12.957Z,13.61
2018-11-12T05:24:13.117Z,13.55
2018-11-12T05:25:13.252Z,13.60
2018-11-12T05:26:13.387Z,13.55
2018-11-12T05:27:13.561Z,13.54
2018-11-12T05:28:13.684Z,13.60
2018-11-12T05:29:13.824Z,13.51
2018-11-12T05:30:14.580Z,13.49
2018-11-12T05:31:14.112Z,13.58
2018-11-12T05:32:14.249Z,13.53
2018-11-12T05:33:14.382Z,13.51
2018-11-12T05:34:14.515Z,13.49
2018-11-12T05:35:14.690Z,13.60
2018-11-12T05:36:14.836Z,13.47
2018-11-12T05:37:14.979Z,13.51
2018-11-12T05:38:15.148Z,13.51
2018-11-12T05:39:15.256Z,13.54
2018-11-12T05:40:15.382Z,13.51
2018-11-12T05:41:15.519Z,13.54
2018-11-12T05:42:15.663Z,13.60
2018-11-12T05:43:15.809Z,13.53
2018-11-12T05:44:15.932Z,13.55
2018-11-12T05:45:16.068Z,13.58
2018-11-12T05:46:16.203Z,13.64
2018-11-12T05:47:16.382Z,13.58
2018-11-12T05:48:16.519Z,13.60
2018-11-12T05:49:16.659Z,13.68
2018-11-12T05:50:16.792Z,13.60
2018-11-12T05:51:16.942Z,13.58
2018-11-12T05:52:17.070Z,13.68
2018-11-12T05:53:17.205Z,13.65
2018-11-12T05:54:17.371Z,13.51
2018-11-12T05:55:17.503Z,13.60
2018-11-12T05:56:17.640Z,13.54
2018-11-12T05:57:17.779Z,13.55
2018-11-12T05:58:17.925Z,13.49
2018-11-12T05:59:18.059Z,13.63
2018-11-12T06:00:18.191Z,13.49
2018-11-12T06:01:18.341Z,13.53
2018-11-12T06:02:18.477Z,13.42
2018-11-12T06:03:18.610Z,13.46
2018-11-12T06:04:18.774Z,13.46
2018-11-12T06:05:18.899Z,13.40
2018-11-12T06:06:19.031Z,13.43
2018-11-12T06:07:19.167Z,13.47
2018-11-12T06:08:19.321Z,13.54
2018-11-12T06:09:19.456Z,13.54
2018-11-12T06:10:19.589Z,13.39
2018-11-12T06:11:19.745Z,13.51
2018-11-12T06:12:19.881Z,13.53
2018-11-12T06:13:20.013Z,13.46
2018-11-12T06:14:21.098Z,13.49
2018-11-12T06:15:20.326Z,13.57
2018-11-12T06:16:20.453Z,13.54
2018-11-12T06:17:20.614Z,13.55
2018-11-12T06:18:20.803Z,13.40
2018-11-12T06:19:20.811Z,13.49
2018-11-12T06:20:20.947Z,13.45
2018-11-12T06:21:21.126Z,13.39
2018-11-12T06:22:21.256Z,13.46
2018-11-12T06:23:21.387Z,13.45
2018-11-12T06:24:21.521Z,13.42
2018-11-12T06:25:21.692Z,13.51
2018-11-12T06:26:21.828Z,13.53
2018-11-12T06:27:21.955Z,13.45
2018-11-12T06:28:22.110Z,13.42
2018-11-12T06:29:22.268Z,13.42
2018-11-12T06:30:22.416Z,13.58
2018-11-12T06:31:22.581Z,13.49
2018-11-12T06:32:22.711Z,13.51
2018-11-12T06:33:22.845Z,13.54
2018-11-12T06:34:23.015Z,13.49
2018-11-12T06:35:23.146Z,13.49
2018-11-12T06:36:23.276Z,13.40
2018-11-12T06:37:23.409Z,13.47
2018-11-12T06:38:23.570Z,13.45
2018-11-12T06:39:23.698Z,13.49
2018-11-12T06:40:23.832Z,13.47
2018-11-12T06:41:23.968Z,13.46
2018-11-12T06:42:24.163Z,13.54
2018-11-12T06:43:24.242Z,13.54
2018-11-12T06:44:24.390Z,13.55
2018-11-12T06:45:24.517Z,13.67
2018-11-12T06:46:24.766Z,13.58
2018-11-12T06:47:24.794Z,13.61
2018-11-12T06:48:24.927Z,13.54
2018-11-12T06:49:25.061Z,13.51
2018-11-12T06:50:25.201Z,13.49
2018-11-12T06:51:25.333Z,13.49
2018-11-12T06:52:25.485Z,13.54
2018-11-12T06:53:25.691Z,13.55
2018-11-12T06:54:25.757Z,13.54
2018-11-12T06:55:25.909Z,13.47
2018-11-12T06:56:26.041Z,13.55
2018-11-12T06:57:26.180Z,13.54
2018-11-12T06:58:26.322Z,13.51
2018-11-12T06:59:26.527Z,13.58
2018-11-12T07:00:26.562Z,13.58
2018-11-12T07:01:26.695Z,13.68
2018-11-12T07:02:26.833Z,13.55
2018-11-12T07:03:26.975Z,13.61
2018-11-12T07:04:27.111Z,13.68
2018-11-12T07:05:27.242Z,13.63
2018-11-12T07:06:27.460Z,13.71
2018-11-12T07:07:27.509Z,13.64
2018-11-12T07:08:27.641Z,13.63
2018-11-12T07:09:27.776Z,13.75
2018-11-12T07:10:27.912Z,13.64
2018-11-12T07:11:28.135Z,13.64
2018-11-12T07:12:28.161Z,13.54
2018-11-12T07:13:28.300Z,13.61
2018-11-12T07:14:28.433Z,13.46
2018-11-12T07:15:28.594Z,13.58
2018-11-12T07:16:28.727Z,13.65
2018-11-12T07:17:28.859Z,13.65
2018-11-12T07:18:28.991Z,13.61
2018-11-12T07:19:29.210Z,13.64
2018-11-12T07:20:29.225Z,13.64
2018-11-12T07:21:29.353Z,13.68
2018-11-12T07:22:29.489Z,13.67
2018-11-12T07:23:29.639Z,13.68
2018-11-12T07:24:29.843Z,13.73
2018-11-12T07:25:29.844Z,13.78
2018-11-12T07:26:29.980Z,13.72
2018-11-12T07:27:30.113Z,13.73
2018-11-12T07:28:30.255Z,13.86
2018-11-12T07:29:30.403Z,13.79
2018-11-12T07:30:30.540Z,13.78
2018-11-12T07:31:30.667Z,13.82
2018-11-12T07:32:30.797Z,13.79
2018-11-12T07:33:30.932Z,13.82
2018-11-12T07:34:31.096Z,13.82
2018-11-12T07:35:31.219Z,13.88
2018-11-12T07:36:31.353Z,13.80
2018-11-12T07:37:31.510Z,13.75
2018-11-12T07:38:31.644Z,13.75
2018-11-12T07:39:31.776Z,13.72
2018-11-12T07:40:31.915Z,13.82
2018-11-12T07:41:32.085Z,13.78
2018-11-12T07:42:32.211Z,13.83
2018-11-12T07:43:32.352Z,13.85
2018-11-12T07:44:32.490Z,13.73
2018-11-12T07:45:32.654Z,13.76
2018-11-12T07:46:32.789Z,13.78
2018-11-12T07:47:32.945Z,13.82
2018-11-12T07:48:33.127Z,13.82
2018-11-12T07:49:33.224Z,13.82
2018-11-12T07:50:33.393Z,13.82
2018-11-12T07:51:33.522Z,13.85
2018-11-12T07:52:33.659Z,13.82
2018-11-12T07:53:33.842Z,13.91
2018-11-12T07:54:34.008Z,13.80
2018-11-12T07:55:34.234Z,13.85
2018-11-12T07:56:34.321Z,13.86
2018-11-12T07:57:34.457Z,13.88
2018-11-12T07:58:34.590Z,13.83
2018-11-12T07:59:34.728Z,13.97
2018-11-12T08:00:34.858Z,13.96
2018-11-12T08:01:34.989Z,13.93
2018-11-12T08:02:35.124Z,13.91
2018-11-12T08:03:35.319Z,13.91
2018-11-12T08:04:35.397Z,13.80
2018-11-12T08:05:35.535Z,13.98
2018-11-12T08:06:35.669Z,13.88
2018-11-12T08:07:35.796Z,13.98
2018-11-12T08:08:35.940Z,13.83
2018-11-12T08:09:36.134Z,13.91
2018-11-12T08:10:36.206Z,13.88
2018-11-12T08:11:37.302Z,14.01
2018-11-12T08:14:08.831Z,14.01
2018-11-12T08:15:08.963Z,13.90
2018-11-12T08:16:09.099Z,13.97
2018-11-12T08:17:09.241Z,13.94
2018-11-12T08:18:09.374Z,14.05
2018-11-12T08:19:09.511Z,14.01
2018-11-12T08:20:09.652Z,13.96
2018-11-12T08:21:09.787Z,13.98
2018-11-12T08:22:09.930Z,13.94
2018-11-12T08:23:10.068Z,14.08
2018-11-12T08:24:10.287Z,13.98
2018-11-12T08:25:10.343Z,14.03
2018-11-12T08:26:10.489Z,13.96
2018-11-12T08:27:10.683Z,14.08
2018-11-12T08:28:10.753Z,13.97
2018-11-12T08:29:10.892Z,14.05
2018-11-12T08:30:11.115Z,13.93
2018-11-12T08:31:11.158Z,14.03
2018-11-12T08:32:11.294Z,14.04
2018-11-12T08:33:11.504Z,13.96
2018-11-12T08:34:11.554Z,14.08
2018-11-12T08:35:11.711Z,14.05
2018-11-12T08:36:11.846Z,14.03
2018-11-12T08:37:11.973Z,14.03
2018-11-12T08:38:12.132Z,14.00
2018-11-12T08:39:12.282Z,13.98
2018-11-12T08:40:12.419Z,14.05
2018-11-12T08:41:12.624Z,13.97
2018-11-12T08:42:12.678Z,13.98
2018-11-12T08:43:12.823Z,13.98
2018-11-12T08:44:12.959Z,13.97
2018-11-12T08:45:13.093Z,14.09
2018-11-12T08:46:13.267Z,14.04
2018-11-12T08:47:13.368Z,14.00
2018-11-12T08:48:13.504Z,14.01
2018-11-12T08:49:13.733Z,14.04
2018-11-12T08:50:13.775Z,13.98
2018-11-12T08:51:13.901Z,14.08
2018-11-12T08:52:14.071Z,14.04
2018-11-12T08:53:14.175Z,13.98
2018-11-12T08:54:14.341Z,14.05
2018-11-12T08:55:14.492Z,14.12
2018-11-12T08:56:14.583Z,14.03
2018-11-12T08:57:14.718Z,14.03
2018-11-12T08:58:15.627Z,14.03
2018-11-12T08:59:15.077Z,13.97
2018-11-12T09:00:15.123Z,14.08
2018-11-12T09:01:15.255Z,13.97
2018-11-12T09:02:15.392Z,14.15
2018-11-12T09:03:15.524Z,14.13
2018-11-12T09:04:15.740Z,14.18
2018-11-12T09:05:15.794Z,14.11
2018-11-12T09:06:15.928Z,14.05
2018-11-12T09:07:16.381Z,14.18
2018-11-12T09:08:16.209Z,14.05
2018-11-12T09:09:16.358Z,14.21
2018-11-12T09:10:16.606Z,14.18
2018-11-12T09:11:16.632Z,14.23
2018-11-12T09:12:16.769Z,14.16
2018-11-12T09:13:16.903Z,14.04
2018-11-12T09:14:17.038Z,14.09
2018-11-12T09:15:17.177Z,14.30
2018-11-12T09:16:17.308Z,14.13
2018-11-12T09:17:17.443Z,14.18
2018-11-12T09:18:17.578Z,14.28
2018-11-12T09:19:17.717Z,14.22
2018-11-12T09:20:17.848Z,14.26
2018-11-12T09:21:17.979Z,14.18
2018-11-12T09:22:18.118Z,14.26
2018-11-12T09:23:18.282Z,14.27
2018-11-12T09:24:18.490Z,14.23
2018-11-12T09:25:18.536Z,14.19
2018-11-12T09:26:18.671Z,14.23
2018-11-12T09:27:18.806Z,14.22
2018-11-12T09:28:18.942Z,14.28
2018-11-12T09:29:19.079Z,14.34
2018-11-12T09:30:19.208Z,14.22
2018-11-12T09:31:20.463Z,14.27
2018-11-12T09:32:19.481Z,14.09
2018-11-12T09:33:19.615Z,14.26
2018-11-12T09:34:19.749Z,14.21
2018-11-12T09:35:19.889Z,14.23
2018-11-12T09:36:20.048Z,14.21
2018-11-12T09:37:20.203Z,14.21
